sensor_id;sensor_type;location;lat;lon;timestamp;P1;durP1;ratioP1;P2;durP2;ratioP2
17773;SDS011;9011;33.236;-97.118;2023-06-19T00:00:46;3.38;;;2.58;;
17773;SDS011;9011;33.236;-97.118;2023-06-19T00:03:14;2.58;;;2.38;;
17773;SDS011;9011;33.236;-97.118;2023-06-19T00:05:43;2.75;;;2.55;;
17773;SDS011;9011;33.236;-97.118;2023-06-19T00:08:12;3.60;;;2.70;;
17773;SDS011;9011;33.236;-97.118;2023-06-19T00:10:41;3.08;;;2.10;;
17773;SDS011;9011;33.236;-97.118;2023-06-19T00:13:09;2.78;;;2.42;;
17773;SDS011;9011;33.236;-97.118;2023-06-19T00:15:37;2.85;;;2.22;;
17773;SDS011;9011;33.236;-97.118;2023-06-19T00:18:06;2.50;;;2.30;;
17773;SDS011;9011;33.236;-97.118;2023-06-19T00:20:35;4.63;;;2.22;;
17773;SDS011;9011;33.236;-97.118;2023-06-19T00:23:05;3.08;;;2.20;;
17773;SDS011;9011;33.236;-97.118;2023-06-19T00:25:38;2.40;;;2.20;;
17773;SDS011;9011;33.236;-97.118;2023-06-19T00:28:07;2.13;;;1.92;;
17773;SDS011;9011;33.236;-97.118;2023-06-19T00:30:37;2.45;;;2.00;;
17773;SDS011;9011;33.236;-97.118;2023-06-19T00:33:05;3.72;;;2.28;;
17773;SDS011;9011;33.236;-97.118;2023-06-19T00:35:34;2.35;;;2.15;;
17773;SDS011;9011;33.236;-97.118;2023-06-19T00:38:02;2.53;;;2.20;;
17773;SDS011;9011;33.236;-97.118;2023-06-19T00:40:33;3.00;;;2.17;;
17773;SDS011;9011;33.236;-97.118;2023-06-19T00:43:03;3.75;;;2.50;;
17773;SDS011;9011;33.236;-97.118;2023-06-19T00:45:31;5.13;;;2.42;;
17773;SDS011;9011;33.236;-97.118;2023-06-19T00:48:00;2.45;;;2.10;;
17773;SDS011;9011;33.236;-97.118;2023-06-19T00:50:29;2.30;;;2.03;;
17773;SDS011;9011;33.236;-97.118;2023-06-19T00:52:58;3.72;;;2.50;;
17773;SDS011;9011;33.236;-97.118;2023-06-19T00:55:29;4.53;;;2.50;;
17773;SDS011;9011;33.236;-97.118;2023-06-19T00:57:58;3.28;;;2.83;;
17773;SDS011;9011;33.236;-97.118;2023-06-19T01:00:29;3.90;;;2.75;;
17773;SDS011;9011;33.236;-97.118;2023-06-19T01:02:57;3.03;;;2.28;;
17773;SDS011;9011;33.236;-97.118;2023-06-19T01:05:26;2.53;;;2.28;;
17773;SDS011;9011;33.236;-97.118;2023-06-19T01:07:57;2.95;;;2.33;;
17773;SDS011;9011;33.236;-97.118;2023-06-19T01:10:27;2.88;;;2.22;;
17773;SDS011;9011;33.236;-97.118;2023-06-19T01:13:00;2.40;;;2.20;;
17773;SDS011;9011;33.236;-97.118;2023-06-19T01:15:34;4.07;;;2.53;;
17773;SDS011;9011;33.236;-97.118;2023-06-19T01:18:04;2.42;;;2.20;;
17773;SDS011;9011;33.236;-97.118;2023-06-19T01:20:33;2.60;;;2.22;;
17773;SDS011;9011;33.236;-97.118;2023-06-19T01:23:08;4.75;;;2.80;;
17773;SDS011;9011;33.236;-97.118;2023-06-19T01:25:37;4.15;;;2.85;;
17773;SDS011;9011;33.236;-97.118;2023-06-19T01:28:06;4.95;;;3.03;;
17773;SDS011;9011;33.236;-97.118;2023-06-19T01:30:38;8.43;;;3.17;;
17773;SDS011;9011;33.236;-97.118;2023-06-19T01:33:08;8.13;;;3.25;;
17773;SDS011;9011;33.236;-97.118;2023-06-19T01:35:40;2.65;;;2.30;;
17773;SDS011;9011;33.236;-97.118;2023-06-19T01:38:12;9.02;;;3.35;;
17773;SDS011;9011;33.236;-97.118;2023-06-19T01:40:41;6.90;;;2.92;;
17773;SDS011;9011;33.236;-97.118;2023-06-19T01:43:10;9.48;;;3.50;;
17773;SDS011;9011;33.236;-97.118;2023-06-19T01:45:39;4.90;;;3.13;;
17773;SDS011;9011;33.236;-97.118;2023-06-19T01:48:08;6.10;;;2.45;;
17773;SDS011;9011;33.236;-97.118;2023-06-19T01:50:36;7.72;;;3.20;;
17773;SDS011;9011;33.236;-97.118;2023-06-19T01:53:05;5.28;;;2.70;;
17773;SDS011;9011;33.236;-97.118;2023-06-19T01:55:34;3.88;;;2.45;;
17773;SDS011;9011;33.236;-97.118;2023-06-19T01:58:03;3.80;;;2.42;;
17773;SDS011;9011;33.236;-97.118;2023-06-19T02:00:31;2.85;;;2.55;;
17773;SDS011;9011;33.236;-97.118;2023-06-19T02:03:01;2.97;;;2.40;;
17773;SDS011;9011;33.236;-97.118;2023-06-19T02:05:29;5.68;;;3.10;;
17773;SDS011;9011;33.236;-97.118;2023-06-19T02:07:58;7.55;;;2.95;;
17773;SDS011;9011;33.236;-97.118;2023-06-19T02:10:27;6.35;;;2.70;;
17773;SDS011;9011;33.236;-97.118;2023-06-19T02:12:56;7.85;;;3.05;;
17773;SDS011;9011;33.236;-97.118;2023-06-19T02:15:25;3.80;;;2.67;;
17773;SDS011;9011;33.236;-97.118;2023-06-19T02:17:53;4.80;;;2.67;;
17773;SDS011;9011;33.236;-97.118;2023-06-19T02:20:23;4.35;;;2.63;;
17773;SDS011;9011;33.236;-97.118;2023-06-19T02:22:51;6.85;;;3.25;;
17773;SDS011;9011;33.236;-97.118;2023-06-19T02:25:20;3.63;;;2.60;;
17773;SDS011;9011;33.236;-97.118;2023-06-19T02:27:48;6.10;;;2.92;;
17773;SDS011;9011;33.236;-97.118;2023-06-19T02:30:18;3.78;;;2.83;;
17773;SDS011;9011;33.236;-97.118;2023-06-19T02:32:47;3.47;;;2.45;;
17773;SDS011;9011;33.236;-97.118;2023-06-19T02:35:15;5.38;;;2.60;;
17773;SDS011;9011;33.236;-97.118;2023-06-19T02:37:43;4.05;;;2.70;;
17773;SDS011;9011;33.236;-97.118;2023-06-19T02:40:13;3.55;;;2.75;;
17773;SDS011;9011;33.236;-97.118;2023-06-19T02:42:41;6.72;;;3.13;;
17773;SDS011;9011;33.236;-97.118;2023-06-19T02:45:09;6.57;;;3.17;;
17773;SDS011;9011;33.236;-97.118;2023-06-19T02:47:39;5.60;;;2.67;;
17773;SDS011;9011;33.236;-97.118;2023-06-19T02:50:08;4.35;;;2.30;;
17773;SDS011;9011;33.236;-97.118;2023-06-19T02:52:37;3.25;;;2.80;;
17773;SDS011;9011;33.236;-97.118;2023-06-19T02:55:05;2.72;;;2.50;;
17773;SDS011;9011;33.236;-97.118;2023-06-19T02:57:34;3.30;;;2.55;;
17773;SDS011;9011;33.236;-97.118;2023-06-19T03:00:02;4.25;;;2.97;;
17773;SDS011;9011;33.236;-97.118;2023-06-19T03:02:34;4.88;;;2.90;;
17773;SDS011;9011;33.236;-97.118;2023-06-19T03:05:04;3.22;;;2.38;;
17773;SDS011;9011;33.236;-97.118;2023-06-19T03:07:33;4.10;;;2.85;;
17773;SDS011;9011;33.236;-97.118;2023-06-19T03:10:02;3.58;;;2.72;;
17773;SDS011;9011;33.236;-97.118;2023-06-19T03:12:30;3.65;;;2.60;;
17773;SDS011;9011;33.236;-97.118;2023-06-19T03:14:59;5.35;;;2.50;;
17773;SDS011;9011;33.236;-97.118;2023-06-19T03:17:27;4.03;;;2.53;;
17773;SDS011;9011;33.236;-97.118;2023-06-19T03:19:55;3.38;;;2.35;;
17773;SDS011;9011;33.236;-97.118;2023-06-19T03:22:25;3.88;;;2.50;;
17773;SDS011;9011;33.236;-97.118;2023-06-19T03:24:54;2.30;;;2.10;;
17773;SDS011;9011;33.236;-97.118;2023-06-19T03:27:22;2.40;;;2.20;;
17773;SDS011;9011;33.236;-97.118;2023-06-19T03:29:52;2.92;;;2.22;;
17773;SDS011;9011;33.236;-97.118;2023-06-19T03:32:21;4.10;;;2.28;;
17773;SDS011;9011;33.236;-97.118;2023-06-19T03:34:49;3.88;;;2.30;;
17773;SDS011;9011;33.236;-97.118;2023-06-19T03:37:17;3.38;;;2.25;;
17773;SDS011;9011;33.236;-97.118;2023-06-19T03:39:47;5.05;;;2.10;;
17773;SDS011;9011;33.236;-97.118;2023-06-19T03:42:16;3.78;;;2.40;;
17773;SDS011;9011;33.236;-97.118;2023-06-19T03:44:44;4.80;;;2.78;;
17773;SDS011;9011;33.236;-97.118;2023-06-19T03:47:12;3.33;;;2.42;;
17773;SDS011;9011;33.236;-97.118;2023-06-19T03:49:41;4.38;;;2.50;;
17773;SDS011;9011;33.236;-97.118;2023-06-19T03:52:10;3.65;;;2.20;;
17773;SDS011;9011;33.236;-97.118;2023-06-19T03:54:38;3.55;;;2.80;;
17773;SDS011;9011;33.236;-97.118;2023-06-19T03:57:08;3.28;;;2.05;;
17773;SDS011;9011;33.236;-97.118;2023-06-19T03:59:37;2.45;;;2.05;;
17773;SDS011;9011;33.236;-97.118;2023-06-19T04:02:05;6.30;;;2.50;;
17773;SDS011;9011;33.236;-97.118;2023-06-19T04:04:34;4.25;;;2.50;;
17773;SDS011;9011;33.236;-97.118;2023-06-19T04:07:02;2.60;;;2.40;;
17773;SDS011;9011;33.236;-97.118;2023-06-19T04:09:30;4.32;;;2.63;;
17773;SDS011;9011;33.236;-97.118;2023-06-19T04:11:59;4.18;;;2.33;;
17773;SDS011;9011;33.236;-97.118;2023-06-19T04:14:29;2.53;;;2.33;;
17773;SDS011;9011;33.236;-97.118;2023-06-19T04:16:57;4.43;;;2.53;;
17773;SDS011;9011;33.236;-97.118;2023-06-19T04:19:25;2.55;;;2.13;;
17773;SDS011;9011;33.236;-97.118;2023-06-19T04:21:54;2.53;;;2.33;;
17773;SDS011;9011;33.236;-97.118;2023-06-19T04:24:22;2.97;;;2.42;;
17773;SDS011;9011;33.236;-97.118;2023-06-19T04:26:50;4.80;;;2.28;;
17773;SDS011;9011;33.236;-97.118;2023-06-19T04:29:19;2.03;;;1.88;;
17773;SDS011;9011;33.236;-97.118;2023-06-19T04:31:49;3.00;;;1.90;;
17773;SDS011;9011;33.236;-97.118;2023-06-19T04:34:17;3.10;;;1.95;;
17773;SDS011;9011;33.236;-97.118;2023-06-19T04:36:46;2.70;;;2.20;;
17773;SDS011;9011;33.236;-97.118;2023-06-19T04:39:15;3.10;;;1.83;;
17773;SDS011;9011;33.236;-97.118;2023-06-19T04:41:43;2.85;;;1.80;;
17773;SDS011;9011;33.236;-97.118;2023-06-19T04:44:11;2.58;;;1.92;;
17773;SDS011;9011;33.236;-97.118;2023-06-19T04:46:40;2.42;;;2.00;;
17773;SDS011;9011;33.236;-97.118;2023-06-19T04:49:11;2.53;;;1.67;;
17773;SDS011;9011;33.236;-97.118;2023-06-19T04:51:40;3.17;;;1.92;;
17773;SDS011;9011;33.236;-97.118;2023-06-19T04:54:08;3.25;;;1.90;;
17773;SDS011;9011;33.236;-97.118;2023-06-19T04:56:37;2.70;;;2.00;;
17773;SDS011;9011;33.236;-97.118;2023-06-19T04:59:05;2.17;;;1.95;;
17773;SDS011;9011;33.236;-97.118;2023-06-19T05:01:33;4.65;;;2.00;;
17773;SDS011;9011;33.236;-97.118;2023-06-19T05:04:06;2.28;;;1.80;;
17773;SDS011;9011;33.236;-97.118;2023-06-19T05:06:35;3.63;;;1.92;;
17773;SDS011;9011;33.236;-97.118;2023-06-19T05:09:04;2.90;;;1.85;;
17773;SDS011;9011;33.236;-97.118;2023-06-19T05:11:32;2.35;;;1.60;;
17773;SDS011;9011;33.236;-97.118;2023-06-19T05:14:01;3.35;;;1.85;;
17773;SDS011;9011;33.236;-97.118;2023-06-19T05:16:29;8.45;;;2.20;;
17773;SDS011;9011;33.236;-97.118;2023-06-19T05:18:57;2.75;;;1.80;;
17773;SDS011;9011;33.236;-97.118;2023-06-19T05:21:26;2.70;;;1.80;;
17773;SDS011;9011;33.236;-97.118;2023-06-19T05:23:56;2.35;;;2.00;;
17773;SDS011;9011;33.236;-97.118;2023-06-19T05:26:24;2.17;;;1.70;;
17773;SDS011;9011;33.236;-97.118;2023-06-19T05:28:52;3.38;;;1.92;;
17773;SDS011;9011;33.236;-97.118;2023-06-19T05:31:21;3.25;;;1.90;;
17773;SDS011;9011;33.236;-97.118;2023-06-19T05:33:49;1.50;;;1.40;;
17773;SDS011;9011;33.236;-97.118;2023-06-19T05:36:17;4.50;;;1.50;;
17773;SDS011;9011;33.236;-97.118;2023-06-19T05:38:46;2.25;;;1.65;;
17773;SDS011;9011;33.236;-97.118;2023-06-19T05:41:16;3.10;;;1.83;;
17773;SDS011;9011;33.236;-97.118;2023-06-19T05:43:44;2.45;;;1.60;;
17773;SDS011;9011;33.236;-97.118;2023-06-19T05:46:14;4.10;;;2.00;;
17773;SDS011;9011;33.236;-97.118;2023-06-19T05:48:42;2.05;;;1.65;;
17773;SDS011;9011;33.236;-97.118;2023-06-19T05:51:11;3.35;;;1.85;;
17773;SDS011;9011;33.236;-97.118;2023-06-19T05:53:39;2.97;;;1.60;;
17773;SDS011;9011;33.236;-97.118;2023-06-19T05:56:07;4.25;;;1.73;;
17773;SDS011;9011;33.236;-97.118;2023-06-19T05:58:37;4.82;;;1.70;;
17773;SDS011;9011;33.236;-97.118;2023-06-19T06:01:06;4.03;;;2.00;;
17773;SDS011;9011;33.236;-97.118;2023-06-19T06:03:35;3.15;;;1.83;;
17773;SDS011;9011;33.236;-97.118;2023-06-19T06:06:03;3.45;;;2.15;;
17773;SDS011;9011;33.236;-97.118;2023-06-19T06:08:32;3.88;;;2.22;;
17773;SDS011;9011;33.236;-97.118;2023-06-19T06:11:01;1.90;;;1.70;;
17773;SDS011;9011;33.236;-97.118;2023-06-19T06:13:30;4.55;;;2.10;;
17773;SDS011;9011;33.236;-97.118;2023-06-19T06:15:59;7.07;;;1.92;;
17773;SDS011;9011;33.236;-97.118;2023-06-19T06:18:28;2.17;;;1.73;;
17773;SDS011;9011;33.236;-97.118;2023-06-19T06:20:56;4.85;;;2.28;;
17773;SDS011;9011;33.236;-97.118;2023-06-19T06:23:25;3.33;;;1.90;;
17773;SDS011;9011;33.236;-97.118;2023-06-19T06:25:53;4.72;;;1.95;;
17773;SDS011;9011;33.236;-97.118;2023-06-19T06:28:27;3.05;;;2.00;;
17773;SDS011;9011;33.236;-97.118;2023-06-19T06:30:57;2.80;;;1.70;;
17773;SDS011;9011;33.236;-97.118;2023-06-19T06:33:27;2.47;;;1.90;;
17773;SDS011;9011;33.236;-97.118;2023-06-19T06:35:55;3.05;;;1.80;;
17773;SDS011;9011;33.236;-97.118;2023-06-19T06:38:24;5.90;;;2.13;;
17773;SDS011;9011;33.236;-97.118;2023-06-19T06:40:53;2.22;;;1.90;;
17773;SDS011;9011;33.236;-97.118;2023-06-19T06:43:21;3.35;;;2.05;;
17773;SDS011;9011;33.236;-97.118;2023-06-19T06:45:50;3.58;;;2.08;;
17773;SDS011;9011;33.236;-97.118;2023-06-19T06:48:18;2.53;;;2.10;;
17773;SDS011;9011;33.236;-97.118;2023-06-19T06:50:49;5.18;;;2.10;;
17773;SDS011;9011;33.236;-97.118;2023-06-19T06:53:24;3.03;;;1.90;;
17773;SDS011;9011;33.236;-97.118;2023-06-19T06:55:53;4.72;;;1.95;;
17773;SDS011;9011;33.236;-97.118;2023-06-19T06:58:21;3.85;;;2.10;;
17773;SDS011;9011;33.236;-97.118;2023-06-19T07:00:50;2.22;;;1.95;;
17773;SDS011;9011;33.236;-97.118;2023-06-19T07:03:19;2.78;;;2.00;;
17773;SDS011;9011;33.236;-97.118;2023-06-19T07:05:49;4.22;;;2.08;;
17773;SDS011;9011;33.236;-97.118;2023-06-19T07:08:18;3.55;;;2.15;;
17773;SDS011;9011;33.236;-97.118;2023-06-19T07:10:46;3.45;;;1.75;;
17773;SDS011;9011;33.236;-97.118;2023-06-19T07:13:14;3.42;;;2.10;;
17773;SDS011;9011;33.236;-97.118;2023-06-19T07:15:43;4.57;;;2.17;;
17773;SDS011;9011;33.236;-97.118;2023-06-19T07:18:11;2.78;;;1.70;;
17773;SDS011;9011;33.236;-97.118;2023-06-19T07:20:39;2.75;;;2.55;;
17773;SDS011;9011;33.236;-97.118;2023-06-19T07:23:09;3.25;;;2.10;;
17773;SDS011;9011;33.236;-97.118;2023-06-19T07:25:38;2.20;;;1.95;;
17773;SDS011;9011;33.236;-97.118;2023-06-19T07:28:06;2.33;;;2.03;;
17773;SDS011;9011;33.236;-97.118;2023-06-19T07:30:35;2.30;;;2.10;;
17773;SDS011;9011;33.236;-97.118;2023-06-19T07:33:03;2.60;;;2.10;;
17773;SDS011;9011;33.236;-97.118;2023-06-19T07:35:32;2.72;;;2.53;;
17773;SDS011;9011;33.236;-97.118;2023-06-19T07:38:00;3.25;;;2.40;;
17773;SDS011;9011;33.236;-97.118;2023-06-19T07:40:30;2.10;;;1.90;;
17773;SDS011;9011;33.236;-97.118;2023-06-19T07:42:58;2.70;;;2.47;;
17773;SDS011;9011;33.236;-97.118;2023-06-19T07:45:26;2.83;;;2.63;;
17773;SDS011;9011;33.236;-97.118;2023-06-19T07:47:55;2.40;;;2.20;;
17773;SDS011;9011;33.236;-97.118;2023-06-19T07:50:23;2.50;;;2.22;;
17773;SDS011;9011;33.236;-97.118;2023-06-19T07:52:52;3.47;;;2.70;;
17773;SDS011;9011;33.236;-97.118;2023-06-19T07:55:20;3.15;;;2.78;;
17773;SDS011;9011;33.236;-97.118;2023-06-19T07:57:50;3.15;;;2.28;;
17773;SDS011;9011;33.236;-97.118;2023-06-19T08:00:22;2.40;;;2.20;;
17773;SDS011;9011;33.236;-97.118;2023-06-19T08:02:50;3.60;;;2.63;;
17773;SDS011;9011;33.236;-97.118;2023-06-19T08:05:19;3.83;;;2.70;;
17773;SDS011;9011;33.236;-97.118;2023-06-19T08:07:47;3.70;;;2.38;;
17773;SDS011;9011;33.236;-97.118;2023-06-19T08:10:16;3.00;;;2.28;;
17773;SDS011;9011;33.236;-97.118;2023-06-19T08:12:44;2.85;;;2.55;;
17773;SDS011;9011;33.236;-97.118;2023-06-19T08:15:14;3.75;;;2.40;;
17773;SDS011;9011;33.236;-97.118;2023-06-19T08:17:42;3.15;;;2.85;;
17773;SDS011;9011;33.236;-97.118;2023-06-19T08:20:11;2.90;;;2.60;;
17773;SDS011;9011;33.236;-97.118;2023-06-19T08:22:40;4.05;;;2.90;;
17773;SDS011;9011;33.236;-97.118;2023-06-19T08:25:08;3.30;;;2.50;;
17773;SDS011;9011;33.236;-97.118;2023-06-19T08:27:37;3.33;;;2.63;;
17773;SDS011;9011;33.236;-97.118;2023-06-19T08:30:06;4.28;;;2.60;;
17773;SDS011;9011;33.236;-97.118;2023-06-19T08:32:36;3.58;;;2.90;;
17773;SDS011;9011;33.236;-97.118;2023-06-19T08:35:05;3.33;;;2.40;;
17773;SDS011;9011;33.236;-97.118;2023-06-19T08:37:33;4.75;;;3.10;;
17773;SDS011;9011;33.236;-97.118;2023-06-19T08:40:02;3.80;;;2.88;;
17773;SDS011;9011;33.236;-97.118;2023-06-19T08:42:34;5.15;;;3.20;;
17773;SDS011;9011;33.236;-97.118;2023-06-19T08:45:05;4.40;;;2.85;;
17773;SDS011;9011;33.236;-97.118;2023-06-19T08:47:36;3.45;;;3.00;;
17773;SDS011;9011;33.236;-97.118;2023-06-19T08:50:05;3.22;;;2.53;;
17773;SDS011;9011;33.236;-97.118;2023-06-19T08:52:34;3.60;;;2.80;;
17773;SDS011;9011;33.236;-97.118;2023-06-19T08:55:02;2.95;;;2.72;;
17773;SDS011;9011;33.236;-97.118;2023-06-19T08:57:35;2.83;;;2.63;;
17773;SDS011;9011;33.236;-97.118;2023-06-19T09:00:05;3.05;;;2.47;;
17773;SDS011;9011;33.236;-97.118;2023-06-19T09:02:45;3.38;;;2.80;;
17773;SDS011;9011;33.236;-97.118;2023-06-19T09:05:14;5.18;;;3.00;;
17773;SDS011;9011;33.236;-97.118;2023-06-19T09:07:43;3.60;;;2.90;;
17773;SDS011;9011;33.236;-97.118;2023-06-19T09:10:15;5.55;;;2.95;;
17773;SDS011;9011;33.236;-97.118;2023-06-19T09:12:55;6.25;;;3.40;;
17773;SDS011;9011;33.236;-97.118;2023-06-19T09:15:27;3.83;;;3.00;;
17773;SDS011;9011;33.236;-97.118;2023-06-19T09:18:01;5.80;;;3.60;;
17773;SDS011;9011;33.236;-97.118;2023-06-19T09:20:30;3.58;;;3.28;;
17773;SDS011;9011;33.236;-97.118;2023-06-19T09:23:00;4.32;;;3.45;;
17773;SDS011;9011;33.236;-97.118;2023-06-19T09:25:29;3.97;;;3.17;;
17773;SDS011;9011;33.236;-97.118;2023-06-19T09:27:57;3.88;;;3.45;;
17773;SDS011;9011;33.236;-97.118;2023-06-19T09:30:26;3.47;;;3.17;;
17773;SDS011;9011;33.236;-97.118;2023-06-19T09:32:54;5.55;;;3.38;;
17773;SDS011;9011;33.236;-97.118;2023-06-19T09:35:24;6.00;;;3.65;;
17773;SDS011;9011;33.236;-97.118;2023-06-19T09:37:52;4.15;;;3.22;;
17773;SDS011;9011;33.236;-97.118;2023-06-19T09:40:21;4.00;;;3.50;;
17773;SDS011;9011;33.236;-97.118;2023-06-19T09:42:50;4.53;;;3.45;;
17773;SDS011;9011;33.236;-97.118;2023-06-19T09:45:23;4.00;;;3.60;;
17773;SDS011;9011;33.236;-97.118;2023-06-19T09:47:56;5.43;;;4.15;;
17773;SDS011;9011;33.236;-97.118;2023-06-19T09:50:26;5.03;;;3.50;;
17773;SDS011;9011;33.236;-97.118;2023-06-19T09:52:55;4.82;;;3.30;;
17773;SDS011;9011;33.236;-97.118;2023-06-19T09:55:25;7.38;;;3.30;;
17773;SDS011;9011;33.236;-97.118;2023-06-19T09:57:56;3.83;;;3.42;;
17773;SDS011;9011;33.236;-97.118;2023-06-19T10:00:26;5.00;;;3.97;;
17773;SDS011;9011;33.236;-97.118;2023-06-19T10:02:56;5.40;;;3.80;;
17773;SDS011;9011;33.236;-97.118;2023-06-19T10:05:30;4.38;;;3.97;;
17773;SDS011;9011;33.236;-97.118;2023-06-19T10:08:01;5.20;;;3.88;;
17773;SDS011;9011;33.236;-97.118;2023-06-19T10:10:30;7.13;;;4.70;;
17773;SDS011;9011;33.236;-97.118;2023-06-19T10:13:00;5.00;;;3.92;;
17773;SDS011;9011;33.236;-97.118;2023-06-19T10:15:40;4.50;;;3.85;;
17773;SDS011;9011;33.236;-97.118;2023-06-19T10:18:13;5.13;;;4.63;;
17773;SDS011;9011;33.236;-97.118;2023-06-19T10:20:44;5.40;;;4.72;;
17773;SDS011;9011;33.236;-97.118;2023-06-19T10:23:14;6.30;;;4.90;;
17773;SDS011;9011;33.236;-97.118;2023-06-19T10:25:44;6.55;;;5.63;;
17773;SDS011;9011;33.236;-97.118;2023-06-19T10:28:17;7.95;;;6.13;;
17773;SDS011;9011;33.236;-97.118;2023-06-19T10:30:51;7.13;;;5.88;;
17773;SDS011;9011;33.236;-97.118;2023-06-19T10:33:21;7.70;;;5.85;;
17773;SDS011;9011;33.236;-97.118;2023-06-19T10:35:51;6.93;;;5.68;;
17773;SDS011;9011;33.236;-97.118;2023-06-19T10:38:19;7.05;;;6.30;;
17773;SDS011;9011;33.236;-97.118;2023-06-19T10:40:48;9.68;;;6.55;;
17773;SDS011;9011;33.236;-97.118;2023-06-19T10:43:19;9.15;;;6.60;;
17773;SDS011;9011;33.236;-97.118;2023-06-19T10:45:50;9.82;;;6.72;;
17773;SDS011;9011;33.236;-97.118;2023-06-19T10:48:19;8.45;;;6.80;;
17773;SDS011;9011;33.236;-97.118;2023-06-19T10:50:48;7.68;;;6.57;;
17773;SDS011;9011;33.236;-97.118;2023-06-19T10:53:24;9.68;;;7.80;;
17773;SDS011;9011;33.236;-97.118;2023-06-19T10:55:56;8.30;;;6.70;;
17773;SDS011;9011;33.236;-97.118;2023-06-19T10:58:25;11.70;;;7.07;;
17773;SDS011;9011;33.236;-97.118;2023-06-19T11:00:54;7.65;;;6.95;;
17773;SDS011;9011;33.236;-97.118;2023-06-19T11:03:22;10.60;;;7.13;;
17773;SDS011;9011;33.236;-97.118;2023-06-19T11:05:52;9.55;;;7.18;;
17773;SDS011;9011;33.236;-97.118;2023-06-19T11:08:21;8.20;;;7.28;;
17773;SDS011;9011;33.236;-97.118;2023-06-19T11:10:50;9.27;;;8.00;;
17773;SDS011;9011;33.236;-97.118;2023-06-19T11:13:19;10.40;;;8.38;;
17773;SDS011;9011;33.236;-97.118;2023-06-19T11:15:47;11.68;;;7.75;;
17773;SDS011;9011;33.236;-97.118;2023-06-19T11:18:16;11.07;;;7.80;;
17773;SDS011;9011;33.236;-97.118;2023-06-19T11:20:46;11.60;;;8.07;;
17773;SDS011;9011;33.236;-97.118;2023-06-19T11:23:17;10.63;;;7.60;;
17773;SDS011;9011;33.236;-97.118;2023-06-19T11:25:53;11.15;;;8.43;;
17773;SDS011;9011;33.236;-97.118;2023-06-19T11:28:29;9.15;;;7.82;;
17773;SDS011;9011;33.236;-97.118;2023-06-19T11:30:58;11.13;;;9.00;;
17773;SDS011;9011;33.236;-97.118;2023-06-19T11:33:27;11.98;;;8.18;;
17773;SDS011;9011;33.236;-97.118;2023-06-19T11:35:59;11.15;;;7.90;;
17773;SDS011;9011;33.236;-97.118;2023-06-19T11:38:29;9.65;;;7.65;;
17773;SDS011;9011;33.236;-97.118;2023-06-19T11:41:00;9.85;;;8.48;;
17773;SDS011;9011;33.236;-97.118;2023-06-19T11:43:29;10.60;;;7.50;;
17773;SDS011;9011;33.236;-97.118;2023-06-19T11:46:01;10.40;;;7.47;;
17773;SDS011;9011;33.236;-97.118;2023-06-19T11:48:30;10.63;;;7.32;;
17773;SDS011;9011;33.236;-97.118;2023-06-19T11:50:59;8.45;;;7.28;;
17773;SDS011;9011;33.236;-97.118;2023-06-19T11:53:27;10.07;;;8.70;;
17773;SDS011;9011;33.236;-97.118;2023-06-19T11:55:57;12.95;;;7.65;;
17773;SDS011;9011;33.236;-97.118;2023-06-19T11:58:25;14.95;;;7.78;;
17773;SDS011;9011;33.236;-97.118;2023-06-19T12:00:54;9.10;;;6.60;;
17773;SDS011;9011;33.236;-97.118;2023-06-19T12:03:22;10.38;;;6.78;;
17773;SDS011;9011;33.236;-97.118;2023-06-19T12:05:51;15.00;;;7.28;;
17773;SDS011;9011;33.236;-97.118;2023-06-19T12:08:19;12.23;;;6.50;;
17773;SDS011;9011;33.236;-97.118;2023-06-19T12:10:49;10.02;;;7.65;;
17773;SDS011;9011;33.236;-97.118;2023-06-19T12:13:17;11.00;;;7.32;;
17773;SDS011;9011;33.236;-97.118;2023-06-19T12:15:45;17.02;;;8.05;;
17773;SDS011;9011;33.236;-97.118;2023-06-19T12:18:14;12.98;;;7.57;;
17773;SDS011;9011;33.236;-97.118;2023-06-19T12:20:42;17.63;;;8.65;;
17773;SDS011;9011;33.236;-97.118;2023-06-19T12:23:10;14.80;;;7.95;;
17773;SDS011;9011;33.236;-97.118;2023-06-19T12:25:39;17.63;;;8.30;;
17773;SDS011;9011;33.236;-97.118;2023-06-19T12:28:09;17.25;;;7.97;;
17773;SDS011;9011;33.236;-97.118;2023-06-19T12:30:42;13.25;;;7.38;;
17773;SDS011;9011;33.236;-97.118;2023-06-19T12:33:10;14.98;;;7.47;;
17773;SDS011;9011;33.236;-97.118;2023-06-19T12:35:39;14.70;;;8.25;;
17773;SDS011;9011;33.236;-97.118;2023-06-19T12:38:08;17.00;;;8.10;;
17773;SDS011;9011;33.236;-97.118;2023-06-19T12:40:37;12.00;;;7.65;;
17773;SDS011;9011;33.236;-97.118;2023-06-19T12:43:05;17.17;;;8.75;;
17773;SDS011;9011;33.236;-97.118;2023-06-19T12:45:35;18.92;;;8.80;;
17773;SDS011;9011;33.236;-97.118;2023-06-19T12:48:04;20.23;;;8.68;;
17773;SDS011;9011;33.236;-97.118;2023-06-19T12:50:32;17.23;;;8.93;;
17773;SDS011;9011;33.236;-97.118;2023-06-19T12:53:00;17.20;;;8.57;;
17773;SDS011;9011;33.236;-97.118;2023-06-19T12:55:29;15.98;;;8.07;;
17773;SDS011;9011;33.236;-97.118;2023-06-19T12:57:57;14.55;;;7.70;;
17773;SDS011;9011;33.236;-97.118;2023-06-19T13:00:25;15.70;;;8.13;;
17773;SDS011;9011;33.236;-97.118;2023-06-19T13:02:55;15.10;;;7.60;;
17773;SDS011;9011;33.236;-97.118;2023-06-19T13:05:24;10.70;;;6.70;;
17773;SDS011;9011;33.236;-97.118;2023-06-19T13:07:52;7.93;;;6.03;;
17773;SDS011;9011;33.236;-97.118;2023-06-19T13:10:20;7.35;;;6.25;;
17773;SDS011;9011;33.236;-97.118;2023-06-19T13:12:49;11.77;;;6.35;;
17773;SDS011;9011;33.236;-97.118;2023-06-19T13:15:17;7.57;;;6.03;;
17773;SDS011;9011;33.236;-97.118;2023-06-19T13:17:45;8.35;;;6.18;;
17773;SDS011;9011;33.236;-97.118;2023-06-19T13:20:15;8.18;;;6.43;;
17773;SDS011;9011;33.236;-97.118;2023-06-19T13:22:44;8.35;;;5.95;;
17773;SDS011;9011;33.236;-97.118;2023-06-19T13:25:12;6.93;;;5.70;;
17773;SDS011;9011;33.236;-97.118;2023-06-19T13:27:40;6.10;;;5.25;;
17773;SDS011;9011;33.236;-97.118;2023-06-19T13:30:09;7.15;;;4.60;;
17773;SDS011;9011;33.236;-97.118;2023-06-19T13:32:38;5.25;;;4.72;;
17773;SDS011;9011;33.236;-97.118;2023-06-19T13:35:07;6.63;;;4.78;;
17773;SDS011;9011;33.236;-97.118;2023-06-19T13:37:37;5.43;;;4.47;;
17773;SDS011;9011;33.236;-97.118;2023-06-19T13:40:06;5.30;;;4.78;;
17773;SDS011;9011;33.236;-97.118;2023-06-19T13:42:35;6.63;;;4.50;;
17773;SDS011;9011;33.236;-97.118;2023-06-19T13:45:04;6.38;;;4.47;;
17773;SDS011;9011;33.236;-97.118;2023-06-19T13:47:33;4.57;;;4.18;;
17773;SDS011;9011;33.236;-97.118;2023-06-19T13:50:01;5.20;;;4.28;;
17773;SDS011;9011;33.236;-97.118;2023-06-19T13:52:30;6.43;;;3.72;;
17773;SDS011;9011;33.236;-97.118;2023-06-19T13:55:00;5.10;;;4.00;;
17773;SDS011;9011;33.236;-97.118;2023-06-19T13:57:29;5.22;;;4.07;;
17773;SDS011;9011;33.236;-97.118;2023-06-19T13:59:58;5.72;;;4.15;;
17773;SDS011;9011;33.236;-97.118;2023-06-19T14:02:26;5.63;;;3.72;;
17773;SDS011;9011;33.236;-97.118;2023-06-19T14:04:54;4.72;;;4.28;;
17773;SDS011;9011;33.236;-97.118;2023-06-19T14:07:23;4.75;;;4.25;;
17773;SDS011;9011;33.236;-97.118;2023-06-19T14:09:52;4.80;;;4.30;;
17773;SDS011;9011;33.236;-97.118;2023-06-19T14:12:22;6.45;;;4.68;;
17773;SDS011;9011;33.236;-97.118;2023-06-19T14:14:50;4.78;;;4.25;;
17773;SDS011;9011;33.236;-97.118;2023-06-19T14:17:18;6.07;;;4.57;;
17773;SDS011;9011;33.236;-97.118;2023-06-19T14:19:47;4.65;;;4.22;;
17773;SDS011;9011;33.236;-97.118;2023-06-19T14:22:16;5.75;;;4.82;;
17773;SDS011;9011;33.236;-97.118;2023-06-19T14:24:44;5.97;;;4.70;;
17773;SDS011;9011;33.236;-97.118;2023-06-19T14:27:13;7.75;;;5.00;;
17773;SDS011;9011;33.236;-97.118;2023-06-19T14:29:42;5.72;;;5.05;;
17773;SDS011;9011;33.236;-97.118;2023-06-19T14:32:11;6.70;;;5.05;;
17773;SDS011;9011;33.236;-97.118;2023-06-19T14:34:39;8.07;;;5.05;;
17773;SDS011;9011;33.236;-97.118;2023-06-19T14:37:07;6.72;;;5.13;;
17773;SDS011;9011;33.236;-97.118;2023-06-19T14:39:36;6.80;;;5.00;;
17773;SDS011;9011;33.236;-97.118;2023-06-19T14:42:04;10.88;;;5.80;;
17773;SDS011;9011;33.236;-97.118;2023-06-19T14:44:33;8.25;;;6.63;;